Time;durP1;ratioP1;P1;durP2;ratioP2;P2;SDS_P1;SDS_P2;PMS_P1;PMS_P2;Temp;Humidity;BMP_temperature;BMP_pressure;BME280_temperature;BME280_humidity;BME280_pressure;Samples;Min_cycle;Max_cycle;Signal;HPM_P1;HPM_P2
2022/06/22 04:15:28;;;;;;;3.33;3.03;;;;;;;17.32;58.54;100056.19;5549971;32;150032;-84
2022/06/22 04:18:37;;;;;;;3.87;3.00;;;;;;;17.32;58.54;100056.19;5543683;32;33651;-85
2022/06/22 04:21:44;;;;;;;2.97;2.67;;;;;;;17.02;58.39;100059.53;5543820;32;34970;-85
2022/06/22 04:24:50;;;;;;;2.90;2.62;;;;;;;17.17;58.88;100046.72;5543871;32;34035;-89
2022/06/22 04:27:56;;;;;;;2.80;2.60;;;;;;;17.32;58.03;100049.97;5543743;32;34234;-89
2022/06/22 04:31:02;;;;;;;6.00;2.80;;;;;;;17.35;57.49;100052.41;5534807;32;33536;-86
2022/06/22 04:34:16;;;;;;;4.55;2.65;;;;;;;17.50;56.84;100052.94;5546519;32;34168;-85
2022/06/22 04:37:30;;;;;;;3.60;2.87;;;;;;;17.46;57.08;100060.38;5548415;32;33870;-85
2022/06/22 04:40:35;;;;;;;3.10;2.47;;;;;;;17.73;57.00;100067.06;5547660;32;34325;-85
2022/06/22 04:43:38;;;;;;;3.28;2.70;;;;;;;17.75;55.86;100075.00;5544111;32;34534;-85
2022/06/22 04:46:44;;;;;;;2.62;2.50;;;;;;;17.81;55.82;100076.28;5548537;32;34156;-85
2022/06/22 04:49:55;;;;;;;2.85;2.60;;;;;;;17.90;56.75;100076.34;5548441;32;34704;-85
2022/06/22 04:53:00;;;;;;;4.65;2.55;;;;;;;18.13;55.92;100083.44;5544257;32;34449;-85
2022/06/22 04:56:06;;;;;;;2.70;2.50;;;;;;;18.77;54.05;100078.78;5535101;32;33938;-84
2022/06/22 04:59:13;;;;;;;2.65;2.45;;;;;;;19.68;50.56;100084.97;5531793;32;34142;-85
2022/06/22 05:02:19;;;;;;;3.20;2.65;;;;;;;19.88;50.29;100087.63;5530569;32;34079;-84
2022/06/22 05:05:25;;;;;;;3.20;2.60;;;;;;;19.67;49.73;100081.41;5538464;32;33978;-85
2022/06/22 05:08:36;;;;;;;4.53;2.53;;;;;;;19.61;50.15;100091.91;5534954;32;33870;-85
2022/06/22 05:11:46;;;;;;;4.45;2.45;;;;;;;19.48;50.58;100090.38;5541310;32;33910;-85
2022/06/22 05:14:52;;;;;;;6.37;2.53;;;;;;;19.31;51.28;100101.81;5548717;32;33955;-85
2022/06/22 05:17:55;;;;;;;5.47;2.50;;;;;;;19.20;51.35;100111.69;5548575;32;34541;-85
2022/06/22 05:21:25;;;;;;;4.97;2.30;;;;;;;19.92;50.52;100118.66;5548930;32;34048;-85
2022/06/22 05:24:34;;;;;;;3.40;2.17;;;;;;;23.63;41.50;100119.47;5545484;32;35051;-85
2022/06/22 05:28:02;;;;;;;4.57;2.00;;;;;;;26.46;35.05;100119.72;5538448;32;33900;-89
2022/06/22 05:31:10;;;;;;;2.92;1.90;;;;;;;28.08;31.45;100116.06;5542552;32;34269;-86
2022/06/22 05:34:18;;;;;;;2.33;1.80;;;;;;;30.75;28.31;100114.34;5519219;32;34671;-86
2022/06/22 05:37:28;;;;;;;3.87;1.85;;;;;;;31.54;25.91;100115.16;5528646;32;34191;-86
2022/06/22 05:40:32;;;;;;;1.67;1.58;;;;;;;31.71;25.52;100110.81;5528526;32;32599;-86
2022/06/22 05:43:39;;;;;;;3.40;1.40;;;;;;;33.22;24.52;100115.34;5514991;32;32877;-86
2022/06/22 05:46:50;;;;;;;4.45;1.80;;;;;;;33.18;23.96;100122.41;5513768;32;34371;-87
2022/06/22 05:50:00;;;;;;;4.62;1.85;;;;;;;30.35;26.72;100122.63;5511414;32;34663;-87
2022/06/22 05:53:06;;;;;;;4.45;1.70;;;;;;;31.66;25.56;100134.47;5510706;32;34382;-88
2022/06/22 05:56:36;;;;;;;5.22;1.65;;;;;;;32.67;24.37;100122.56;5511721;32;34423;-88
2022/06/22 06:00:10;;;;;;;3.45;1.80;;;;;;;33.76;23.03;100128.28;5512982;32;34009;-88
2022/06/22 06:03:32;;;;;;;6.97;1.48;;;;;;;32.15;24.77;100123.75;5513852;32;34734;-86
2022/06/22 06:06:41;;;;;;;5.50;1.70;;;;;;;32.15;24.54;100118.28;5519681;32;34647;-90
2022/06/22 06:09:45;;;;;;;3.17;1.60;;;;;;;31.34;25.90;100140.81;5538487;32;32791;-86
2022/06/22 06:12:56;;;;;;;5.00;1.80;;;;;;;30.04;27.29;100141.38;5512660;32;34166;-87
2022/06/22 06:16:02;;;;;;;3.33;1.90;;;;;;;30.07;27.10;100130.00;5527405;32;34530;-86
2022/06/22 06:19:14;;;;;;;5.32;1.62;;;;;;;31.51;25.80;100130.16;5510132;32;34213;-87
2022/06/22 06:22:17;;;;;;;4.75;1.73;;;;;;;31.33;25.38;100131.75;5519509;32;33586;-86
2022/06/22 06:29:04;;;;;;;6.85;1.87;;;;;;;30.38;26.28;100135.87;5522188;32;33812;-86
2022/06/22 06:32:44;;;;;;;8.57;1.50;;;;;;;28.15;28.84;100140.62;5526132;32;34265;-86
2022/06/22 06:35:55;;;;;;;3.00;2.05;;;;;;;26.03;32.73;100142.06;5510709;32;34542;-84
2022/06/22 06:39:12;;;;;;;2.25;1.60;;;;;;;25.25;33.74;100133.97;5512219;32;33895;-87
2022/06/22 06:42:31;;;;;;;5.70;1.55;;;;;;;25.56;34.03;100133.13;5518586;32;33656;-87
2022/06/22 06:45:35;;;;;;;2.37;1.95;;;;;;;25.33;34.63;100143.94;5521390;32;34201;-87
2022/06/22 06:48:40;;;;;;;2.75;1.95;;;;;;;24.61;35.88;100143.91;5531458;32;33514;-87
2022/06/22 06:52:03;;;;;;;3.28;1.87;;;;;;;23.43;37.64;100149.53;5530008;32;34450;-88
2022/06/22 06:55:24;;;;;;;4.78;1.90;;;;;;;24.08;37.21;100141.63;5519943;32;34043;-86
2022/06/22 06:58:40;;;;;;;3.72;2.20;;;;;;;24.64;35.79;100140.84;5526562;32;33899;-86
2022/06/22 07:01:45;;;;;;;3.10;1.85;;;;;;;26.05;33.57;100123.69;5525584;32;34035;-87
2022/06/22 07:04:48;;;;;;;3.12;1.85;;;;;;;27.27;31.50;100115.34;5514691;32;32995;-86
2022/06/22 07:07:56;;;;;;;4.40;1.90;;;;;;;25.65;33.18;100134.75;5526251;32;33705;-87
2022/06/22 07:11:32;;;;;;;4.15;2.00;;;;;;;24.83;35.36;100131.47;5525351;32;34184;-87
2022/06/22 07:14:38;;;;;;;7.40;2.20;;;;;;;25.48;34.88;100106.00;5515512;32;34130;-86
2022/06/22 07:17:43;;;;;;;4.20;2.10;;;;;;;26.23;33.46;100111.66;5526047;32;35230;-85
2022/06/22 07:20:54;;;;;;;5.70;2.03;;;;;;;26.29;33.14;100100.03;5522264;32;34752;-86
2022/06/22 07:24:16;;;;;;;;;;;;;;;26.03;33.55;100109.47;5519029;32;34417;-86
2022/06/22 07:27:34;;;;;;;2.65;1.50;;;;;;;26.01;33.52;100116.09;5520135;32;34932;-87
2022/06/22 07:31:00;;;;;;;6.15;1.87;;;;;;;25.72;34.09;100115.84;5520636;32;34154;-87
2022/06/22 07:34:11;;;;;;;3.67;2.30;;;;;;;26.66;32.65;100110.16;5517224;32;32092;-87
2022/06/22 07:37:21;;;;;;;7.72;2.03;;;;;;;27.01;32.14;100097.66;5515137;32;33152;-87
2022/06/22 07:40:27;;;;;;;4.93;1.60;;;;;;;27.31;30.51;100102.19;5535163;32;35190;-86
2022/06/22 07:43:33;;;;;;;4.78;2.20;;;;;;;27.68;30.52;100102.13;5528338;32;33141;-86
2022/06/22 07:46:42;;;;;;;3.35;1.65;;;;;;;26.85;31.24;100089.69;5528905;32;33969;-86
2022/06/22 07:49:52;;;;;;;1.77;1.60;;;;;;;26.75;31.88;100088.09;5528778;32;34333;-86
2022/06/22 07:53:30;;;;;;;1.75;1.65;;;;;;;27.56;31.44;100088.16;5531903;32;34473;-86
2022/06/22 07:56:47;;;;;;;1.60;1.50;;;;;;;27.77;29.84;100097.38;5521567;32;34108;-86
2022/06/22 08:00:06;;;;;;;2.58;1.37;;;;;;;28.32;28.81;100092.16;5515011;32;34210;-85
2022/06/22 08:03:37;;;;;;;2.92;1.37;;;;;;;28.25;26.22;100091.25;5514465;32;33577;-88
2022/06/22 08:06:46;;;;;;;4.70;1.25;;;;;;;28.55;25.86;100085.53;5520960;32;34758;-85
2022/06/22 08:10:04;;;;;;;1.90;1.17;;;;;;;28.36;26.20;100089.84;5525327;32;35210;-86
2022/06/22 08:13:16;;;;;;;3.03;1.30;;;;;;;28.27;25.77;100086.44;5517871;32;34237;-86
2022/06/22 08:16:26;;;;;;;1.40;1.20;;;;;;;28.67;25.26;100084.94;5532991;32;35116;-86
2022/06/22 08:19:31;;;;;;;22.23;2.83;;;;;;;28.66;25.79;100084.13;5521645;32;34714;-86
2022/06/22 08:22:34;;;;;;;2.33;1.27;;;;;;;28.71;25.04;100083.50;5526084;32;33055;-86
2022/06/22 08:25:38;;;;;;;3.65;1.48;;;;;;;29.00;23.97;100081.53;5532147;32;34658;-86
2022/06/22 08:28:41;;;;;;;1.20;1.10;;;;;;;29.56;24.96;100082.31;5533273;32;34224;-86
2022/06/22 08:31:55;;;;;;;3.42;1.20;;;;;;;30.05;23.78;100073.84;5533892;32;33923;-85
2022/06/22 08:35:22;;;;;;;9.10;2.47;;;;;;;28.64;24.33;100081.59;5532700;32;32414;-86
2022/06/22 08:38:32;;;;;;;4.53;1.52;;;;;;;29.86;23.30;100066.31;5533364;32;34047;-85
2022/06/22 08:42:01;;;;;;;2.78;1.23;;;;;;;30.06;23.04;100070.06;5533221;32;34158;-86
2022/06/22 08:45:25;;;;;;;2.90;1.20;;;;;;;30.20;23.50;100058.06;5531915;32;33707;-86
2022/06/22 08:48:47;;;;;;;2.22;1.15;;;;;;;30.50;22.93;100057.56;5532129;32;33767;-87
2022/06/22 08:52:12;;;;;;;3.05;1.10;;;;;;;31.07;22.45;100072.44;5531014;32;32933;-85
2022/06/22 08:55:43;;;;;;;2.03;1.30;;;;;;;31.76;21.65;100066.28;5538959;32;32404;-86
2022/06/22 08:59:17;;;;;;;3.35;1.60;;;;;;;31.38;20.78;100068.09;5540455;32;33951;-86
2022/06/22 09:02:31;;;;;;;3.62;1.33;;;;;;;31.37;22.66;100073.78;5540273;32;34185;-85
2022/06/22 09:05:46;;;;;;;1.85;1.35;;;;;;;30.69;21.80;100074.13;5533375;32;34509;-85
2022/06/22 09:09:05;;;;;;;5.35;2.15;;;;;;;31.90;20.91;100077.16;5530379;32;32639;-90
2022/06/22 09:12:30;;;;;;;1.37;1.20;;;;;;;32.50;20.58;100073.81;5523245;32;33629;-86
2022/06/22 09:15:49;;;;;;;4.62;1.40;;;;;;;32.16;20.30;100070.56;5510773;32;32476;-86
2022/06/22 09:19:11;;;;;;;;;;;;;;;32.92;20.39;100073.03;5520175;32;33862;-85
2022/06/22 09:22:15;;;;;;;3.10;1.23;;;;;;;32.92;20.08;100070.28;5532022;32;34821;-85
2022/06/22 09:25:29;;;;;;;4.93;1.20;;;;;;;32.60;20.41;100067.78;5522114;32;34338;-85
2022/06/22 09:28:45;;;;;;;1.33;1.23;;;;;;;33.52;19.65;100070.50;5518581;32;33867;-86
2022/06/22 09:32:03;;;;;;;1.35;1.20;;;;;;;33.31;19.17;100069.12;5528728;32;34274;-86
2022/06/22 09:35:51;;;;;;;1.73;1.27;;;;;;;32.06;20.62;100067.50;5522620;32;34125;-87
2022/06/22 09:39:19;;;;;;;2.03;1.20;;;;;;;31.53;20.97;100056.78;5506754;32;35058;-87
2022/06/22 09:42:46;;;;;;;2.65;1.58;;;;;;;32.41;21.01;100064.19;5543876;32;33702;-87
2022/06/22 09:45:49;;;;;;;2.37;1.00;;;;;;;31.67;19.92;100056.69;5549687;32;34051;-86
2022/06/22 09:49:20;;;;;;;2.03;0.93;;;;;;;31.85;19.69;100045.78;5551292;32;33998;-86
2022/06/22 09:52:29;;;;;;;2.08;1.10;;;;;;;32.36;20.31;100040.16;5552771;32;34466;-87
2022/06/22 09:59:36;;;;;;;2.10;1.10;;;;;;;32.64;18.32;100049.75;5525979;32;33237;-87
2022/06/22 10:03:17;;;;;;;1.77;1.30;;;;;;;32.61;19.89;100043.87;5546521;32;33703;-92
2022/06/22 10:06:35;;;;;;;4.20;1.12;;;;;;;33.44;19.15;100041.41;5549388;32;34627;-89
2022/06/22 10:09:51;;;;;;;4.40;1.10;;;;;;;33.25;18.21;100042.59;5534670;32;35349;-88
2022/06/22 10:13:06;;;;;;;3.97;1.05;;;;;;;31.98;19.35;100038.47;5536079;32;34256;-87
2022/06/22 10:16:17;;;;;;;0.80;0.80;;;;;;;33.20;18.49;100035.06;5535823;32;32805;-86
2022/06/22 10:19:52;;;;;;;1.65;0.95;;;;;;;33.56;17.22;100032.38;5545053;32;34377;-86
2022/06/22 10:23:15;;;;;;;3.92;1.08;;;;;;;32.78;18.69;100036.69;5540068;32;34417;-86
2022/06/22 10:26:22;;;;;;;1.37;1.05;;;;;;;34.10;17.46;100029.53;5540161;32;34019;-86
2022/06/22 10:29:30;;;;;;;1.00;1.00;;;;;;;33.96;16.96;100037.16;5538203;32;33980;-86
2022/06/22 10:32:59;;;;;;;3.67;0.90;;;;;;;33.81;17.19;100037.66;5541583;32;34916;-91
2022/06/22 10:36:22;;;;;;;2.00;1.33;;;;;;;34.16;16.49;100041.47;5536068;32;33554;-86
2022/06/22 10:39:39;;;;;;;1.95;0.95;;;;;;;34.22;17.24;100042.41;5550634;32;34768;-87
2022/06/22 10:46:30;;;;;;;1.90;0.82;;;;;;;32.86;17.70;100041.03;5531634;32;34166;-86
2022/06/22 10:50:03;;;;;;;1.48;0.85;;;;;;;31.83;18.49;100047.03;5532820;32;34046;-87
2022/06/22 10:53:45;;;;;;;3.20;1.08;;;;;;;32.69;18.21;100045.47;5546421;32;35163;-93
2022/06/22 10:57:32;;;;;;;1.50;1.00;;;;;;;32.68;18.13;100044.66;5540978;32;33810;-89
2022/06/22 11:00:57;;;;;;;1.27;0.90;;;;;;;31.51;19.72;100045.19;5517255;32;33293;-88
2022/06/22 11:04:32;;;;;;;2.78;1.20;;;;;;;31.63;18.96;100041.72;5537896;32;34057;-89
2022/06/22 11:07:59;;;;;;;1.80;1.00;;;;;;;33.58;17.80;100050.31;5537373;32;34033;-88
2022/06/22 11:11:10;;;;;;;1.30;0.77;;;;;;;32.66;17.82;100046.78;5539195;32;34516;-89
2022/06/22 11:14:50;;;;;;;2.58;0.90;;;;;;;32.36;17.90;100040.16;5541855;32;34147;-89
2022/06/22 11:17:58;;;;;;;2.47;1.05;;;;;;;32.60;17.62;100044.97;5528233;32;34096;-88
2022/06/22 11:21:23;;;;;;;1.63;0.80;;;;;;;30.98;18.48;100044.50;5551382;32;35217;-89
2022/06/22 11:24:39;;;;;;;1.10;0.65;;;;;;;30.47;17.99;100041.56;5555024;32;35280;-88
2022/06/22 11:31:38;;;;;;;1.12;1.00;;;;;;;30.55;18.74;100032.28;5543733;32;35178;-88
2022/06/22 11:35:15;;;;;;;1.35;0.98;;;;;;;30.61;18.85;100038.78;5544632;32;32919;-88
2022/06/22 11:38:42;;;;;;;1.92;1.00;;;;;;;31.80;18.71;100028.28;5544051;32;35061;-88
2022/06/22 11:42:08;;;;;;;2.25;1.20;;;;;;;31.71;17.80;100025.84;5531743;32;33829;-88
2022/06/22 11:45:51;;;;;;;3.25;0.88;;;;;;;31.55;18.65;100019.03;5546751;32;34610;-87
2022/06/22 11:49:12;;;;;;;1.00;0.90;;;;;;;31.00;18.32;100005.94;5548025;32;34345;-88
2022/06/22 11:52:26;;;;;;;0.90;0.90;;;;;;;30.15;18.68;100005.09;5553104;32;33778;-87
2022/06/22 11:55:48;;;;;;;3.85;1.83;;;;;;;30.10;19.01;100008.44;5530245;32;33242;-89
2022/06/22 11:59:31;;;;;;;1.75;0.85;;;;;;;30.11;19.51;100010.97;5515698;32;33601;-88
2022/06/22 12:02:37;;;;;;;1.73;1.08;;;;;;;29.42;20.37;100002.19;5540011;32;33903;-87
2022/06/22 12:06:25;;;;;;;6.53;1.50;;;;;;;30.28;19.46;99999.56;5519917;32;32962;-88
2022/06/22 12:09:30;;;;;;;4.50;1.17;;;;;;;30.57;19.37;100002.78;5516132;32;33220;-87
2022/06/22 12:13:07;;;;;;;3.87;1.15;;;;;;;31.03;18.97;100003.59;5547808;32;32556;-86
2022/06/22 12:16:27;;;;;;;3.50;0.90;;;;;;;30.38;19.95;99994.44;5565885;32;35119;-87
2022/06/22 12:20:06;;;;;;;1.67;1.00;;;;;;;29.22;20.83;99994.84;5555288;32;35266;-87
2022/06/22 12:23:25;;;;;;;1.23;0.88;;;;;;;29.89;20.48;99987.66;5545187;32;35290;-91
2022/06/22 12:26:39;;;;;;;2.75;1.12;;;;;;;29.53;20.89;99985.19;5514690;32;32891;-87
2022/06/22 12:30:03;;;;;;;2.67;1.33;;;;;;;29.29;20.76;99981.16;5528612;32;33953;-85
2022/06/22 12:33:10;;;;;;;0.80;0.77;;;;;;;29.94;20.70;99980.50;5531345;32;34846;-85
2022/06/22 12:36:25;;;;;;;1.45;1.20;;;;;;;29.74;20.80;99977.81;5524094;32;33365;-85
2022/06/22 12:39:35;;;;;;;1.05;0.98;;;;;;;29.96;20.09;99975.63;5535102;32;33286;-85
2022/06/22 12:43:08;;;;;;;3.90;1.00;;;;;;;30.02;20.62;99975.84;5533965;32;34614;-86
2022/06/22 12:46:29;;;;;;;1.95;0.93;;;;;;;29.61;20.24;99966.91;5500330;32;34171;-85
2022/06/22 12:49:59;;;;;;;2.62;1.05;;;;;;;29.12;21.25;99962.47;5533594;32;34723;-85
2022/06/22 12:53:11;;;;;;;2.60;1.48;;;;;;;29.21;19.95;99956.81;5535136;32;33669;-89
2022/06/22 12:56:26;;;;;;;5.93;1.00;;;;;;;29.68;20.26;99952.19;5542381;32;34199;-86
2022/06/22 12:59:51;;;;;;;1.65;0.90;;;;;;;29.70;20.83;99947.34;5529716;32;34045;-85
2022/06/22 13:02:58;;;;;;;0.90;0.90;;;;;;;29.63;20.72;99959.31;5530602;32;35162;-86
2022/06/22 13:06:02;;;;;;;2.03;1.00;;;;;;;28.65;21.38;99954.19;5530856;32;33985;-86
2022/06/22 13:09:06;;;;;;;1.75;0.90;;;;;;;28.96;20.82;99951.97;5510715;32;32705;-86
2022/06/22 13:12:25;;;;;;;3.45;1.70;;;;;;;28.64;22.10;99966.16;5543331;32;34205;-85
2022/06/22 13:15:47;;;;;;;1.95;1.30;;;;;;;28.87;22.12;99959.53;5537008;32;32867;-87
2022/06/22 13:19:03;;;;;;;1.65;1.40;;;;;;;28.79;22.04;99958.62;5539580;32;34154;-86
2022/06/22 13:22:14;;;;;;;1.90;1.00;;;;;;;28.61;22.70;99942.84;5554392;26;34825;-87
2022/06/22 13:25:40;;;;;;;3.22;1.20;;;;;;;28.64;21.86;99941.59;5526574;32;34341;-87
2022/06/22 13:29:16;;;;;;;3.75;1.10;;;;;;;28.67;22.13;99935.75;5523891;32;33225;-87
2022/06/22 13:32:23;;;;;;;2.80;1.20;;;;;;;28.78;22.71;99932.41;5511792;32;32495;-85
2022/06/22 13:35:35;;;;;;;1.87;1.10;;;;;;;28.27;22.43;99921.97;5510624;32;33799;-86
2022/06/22 13:39:07;;;;;;;1.20;1.08;;;;;;;28.89;22.23;99913.75;5508599;32;34111;-85
2022/06/22 13:42:19;;;;;;;1.02;1.02;;;;;;;28.85;22.35;99924.22;5520467;32;33913;-88
2022/06/22 13:45:40;;;;;;;2.50;1.20;;;;;;;28.57;22.78;99927.09;5510759;32;34375;-86
2022/06/22 13:49:04;;;;;;;1.77;1.00;;;;;;;28.37;23.50;99926.00;5518331;32;33625;-87
2022/06/22 13:52:55;;;;;;;1.80;1.23;;;;;;;28.47;23.56;99924.78;5533582;32;34137;-88
2022/06/22 13:56:13;;;;;;;3.55;1.37;;;;;;;28.67;22.56;99930.28;5521418;32;34136;-89
2022/06/22 13:59:25;;;;;;;1.45;1.23;;;;;;;28.73;22.64;99914.94;5515218;32;34044;-89
2022/06/22 14:02:34;;;;;;;4.72;1.50;;;;;;;28.68;23.51;99917.47;5530688;32;33813;-89
2022/06/22 14:27:44;;;;;;;3.83;1.77;;;;;;;28.68;23.77;99906.53;4925767;29;20176;-88
2022/06/22 14:31:08;;;;;;;1.42;1.33;;;;;;;28.49;24.59;99906.31;5514412;32;32590;-88
2022/06/22 14:34:34;;;;;;;3.05;1.58;;;;;;;28.25;24.07;99901.22;5529054;32;33797;-90
2022/06/22 14:37:53;;;;;;;5.43;1.40;;;;;;;28.15;25.21;99902.63;5515171;32;33826;-89
2022/06/22 14:41:08;;;;;;;2.22;1.67;;;;;;;28.12;25.57;99899.25;5533210;32;34462;-89
2022/06/22 14:44:20;;;;;;;2.37;1.58;;;;;;;28.11;25.35;99900.28;5525743;32;34073;-89
2022/06/22 14:47:53;;;;;;;1.62;1.50;;;;;;;28.55;25.39;99899.19;5499871;32;32006;-89
2022/06/22 14:51:07;;;;;;;4.62;1.85;;;;;;;28.99;24.60;99896.94;5496553;32;33510;-89
2022/06/22 14:54:28;;;;;;;4.65;1.40;;;;;;;28.69;24.57;99894.56;5510106;32;34404;-87
2022/06/22 14:57:57;;;;;;;2.08;1.70;;;;;;;27.87;25.21;99887.19;5492487;32;33174;-88
2022/06/22 15:01:10;;;;;;;1.40;1.30;;;;;;;27.70;24.45;99891.09;5490426;32;34248;-89
2022/06/22 15:04:40;;;;;;;1.50;1.40;;;;;;;27.90;24.68;99870.44;5491887;32;34936;-88
2022/06/22 15:07:56;;;;;;;2.12;1.60;;;;;;;27.73;24.80;99872.66;5491881;32;34306;-90
2022/06/22 15:14:51;;;;;;;4.47;1.90;;;;;;;28.07;25.31;99855.44;5491525;32;34887;-93
2022/06/22 15:18:34;;;;;;;2.20;1.40;;;;;;;27.96;25.66;99859.56;5491264;32;34094;-89
2022/06/22 15:21:48;;;;;;;3.58;1.55;;;;;;;27.54;25.73;99859.56;5491359;32;35216;-88
2022/06/22 15:25:16;;;;;;;2.47;1.45;;;;;;;27.53;25.44;99857.88;5491236;32;34259;-89
